Bailey Creek, Kentucky
Current Conditions -  °F | °C
As of 10:35 PM on Saturday 22 Nov 2014 (Local Time) from KI35 Reporting Station
Scattered Clouds Scattered Clouds  
Wind Chill: 46°   Ceiling: Unl
Heat Index: 46°   Visibility: 10mi
Dew Point: 23°   Wind: 0mph
Humidity: 40%   Direction: NA
Pressure: 30.18"   Gusts: NA
Location:  36.8509°N, 83.1611°W
Report Text: KI35 230335Z AUTO 00000KT 10SM SCT038 08/M05 A3018 RMK AO1
Loading
Personal Weather Stations






























Interactive Weather Map New forecast layout! Learn more

10-Day Weather Forecast

Advertisements
Track Severe Weather on mobile